首页
METAR-TAF:

METAR-TAF

机场 :

Odiham, 英格兰

纬度: 51-14N, 经度: 000-57W, 海拔: 123米

当前天气观测

该预报发布于14分钟前的21:21 UTC
风速9节,风向
温度 6°C
湿度 93%
气压 1011 hPa
能见度10公里或以上
少量云层高于1200英尺
散云层高于3500英尺
多云层高于20000英尺

METAR: EGVO 292121Z 19009KT 9999 FEW012 SCT035 BKN200 06/05 Q1011 BLU NOSIG RMK BLU BLU

时间: 21:35 (21:35 UTC)

预报

该预报发布于1小时和33分钟前的20:02 UTC
预报有效从29日的 21点(UTC)到 30日的 09点(UTC)
风速12节,风向南转西南
能见度10公里或以上
少量云层高于3000英尺
短暂存在
从 29日的 21点(UTC)到 30日的 02点(UTC)
散云层高于1200英尺
成为
从 30日的 03点(UTC)到 30日的 06点(UTC)
能見度: 5000
多云层高于800英尺
轻雾
几率 40% :
短暂存在
从 30日的 05点(UTC)到 30日的 07点(UTC)
能見度: 3000
多云层高于300英尺
小毛毛雨
成为
从 30日的 06点(UTC)到 30日的 08点(UTC)
能見度: 4000
多云层高于500英尺
几率 40% :
短暂存在
从 30日的 07点(UTC)到 30日的 09点(UTC)
能見度: 1500
多云层高于200英尺
小毛毛雨

TAF: EGVO 292002Z 2921/3009 21012KT 9999 FEW030 TEMPO 2921/3002 SCT012 BECMG 3003/3006 5000 BR BKN008 PROB40 TEMPO 3005/3007 3000 -DZ BKN003 BECMG 3006/3008 4000 BKN005 PROB40 TEMPO 3007/3009 1500 -DZ BKN002

超过4000个机场的气象观测和天气预报(METAR&TAF报告)。

可查询的气象台以黄色和红色小点在地图上表示。

将鼠标移到小点上方,可查看气象台名称。

然后点击查看天气观测和预报。

如需切换地图:点击带黑十字的绿色按钮放大地图;点击带横线的绿色按钮缩小地图;或者点击绿色箭头查看邻近地区的地图。


METAR-TAF: